Time;durP1;ratioP1;P1;durP2;ratioP2;P2;SDS_P1;SDS_P2;PMS_P1;PMS_P2;Temp;Humidity;BMP_temperature;BMP_pressure;BME280_temperature;BME280_humidity;BME280_pressure;Samples;Min_cycle;Max_cycle;Signal;HPM_P1;HPM_P2
2021/12/21 00:00:19;;;;;;;2.67;2.47;;;19.30;40.10;;;;;;5072733;28;20546;-60
2021/12/21 00:02:48;;;;;;;2.60;2.40;;;19.30;40.10;;;;;;5072240;28;20273;-60
2021/12/21 00:05:18;;;;;;;2.20;2.10;;;19.30;40.00;;;;;;5068540;28;20851;-61
2021/12/21 00:07:46;;;;;;;2.40;2.20;;;19.30;40.10;;;;;;5069487;28;20504;-60
2021/12/21 00:10:13;;;;;;;2.30;2.20;;;19.30;40.00;;;;;;5071844;28;20507;-60
2021/12/21 00:12:49;;;;;;;2.60;2.50;;;19.30;40.10;;;;;;5069319;28;20437;-61
2021/12/21 00:15:25;;;;;;;2.33;2.23;;;19.30;40.10;;;;;;5070541;28;20417;-60
2021/12/21 00:25:18;;;;;;;2.50;2.30;;;19.30;40.10;;;;;;5068072;28;20438;-60
2021/12/21 00:27:46;;;;;;;2.37;2.17;;;19.30;40.10;;;;;;5071050;28;20496;-60
2021/12/21 00:30:12;;;;;;;1.97;1.87;;;19.30;40.10;;;;;;5070337;28;20447;-63
2021/12/21 00:32:38;;;;;;;2.60;2.40;;;19.30;40.10;;;;;;5069030;28;20514;-60
2021/12/21 00:35:05;;;;;;;2.97;2.77;;;19.30;40.10;;;;;;5068387;28;20228;-63
2021/12/21 00:37:30;;;;;;;2.27;2.17;;;19.30;40.10;;;;;;5068617;28;20875;-62
2021/12/21 00:39:56;;;;;;;2.20;2.10;;;19.30;40.10;;;;;;5069844;28;20549;-60
2021/12/21 00:42:22;;;;;;;2.00;1.90;;;19.30;40.10;;;;;;5069725;28;20237;-62
2021/12/21 00:44:47;;;;;;;2.50;2.40;;;19.30;40.10;;;;;;5068593;28;20271;-60
2021/12/21 00:47:15;;;;;;;2.23;2.13;;;19.30;40.10;;;;;;5068821;28;20593;-60
2021/12/21 00:49:45;;;;;;;2.57;2.37;;;19.30;40.10;;;;;;5070739;28;20214;-59
2021/12/21 00:52:12;;;;;;;2.30;2.10;;;19.30;40.10;;;;;;5068583;28;20473;-63
2021/12/21 00:54:38;;;;;;;2.27;2.17;;;19.30;40.10;;;;;;5069813;28;20454;-61
2021/12/21 00:57:04;;;;;;;2.57;2.37;;;19.30;40.10;;;;;;5068085;28;20458;-61
2021/12/21 00:59:33;;;;;;;2.20;2.10;;;19.30;40.10;;;;;;5069261;28;20308;-59
2021/12/21 01:01:59;;;;;;;2.50;2.30;;;19.30;40.10;;;;;;5075012;28;20451;-60
2021/12/21 01:04:31;;;;;;;2.10;2.00;;;19.30;40.90;;;;;;5068667;28;20466;-60
2021/12/21 01:07:08;;;;;;;2.03;1.93;;;19.30;40.10;;;;;;5067329;28;20477;-60
2021/12/21 01:10:02;;;;;;;2.30;2.20;;;19.30;40.10;;;;;;5068436;28;20454;-61
2021/12/21 01:12:38;;;;;;;2.87;2.67;;;19.30;40.10;;;;;;5068028;28;20444;-60
2021/12/21 01:15:51;;;;;;;2.57;2.10;;;19.30;40.10;;;;;;5064256;28;20956;-61
2021/12/21 01:18:15;;;;;;;2.33;2.13;;;19.30;40.10;;;;;;5063991;28;20504;-60
2021/12/21 01:20:48;;;;;;;2.50;2.30;;;19.30;40.10;;;;;;5068072;28;20439;-60
2021/12/21 01:26:15;;;;;;;2.37;2.17;;;19.20;40.00;;;;;;5038265;28;20517;-60
2021/12/21 01:28:49;;;;;;;2.10;2.00;;;19.30;40.10;;;;;;5066014;28;20442;-61
2021/12/21 01:31:24;;;;;;;2.00;1.90;;;19.20;40.00;;;;;;5066142;28;20888;-59
2021/12/21 01:34:20;;;;;;;2.13;2.03;;;19.20;40.80;;;;;;5069276;28;20435;-62
2021/12/21 01:36:55;;;;;;;2.00;1.90;;;19.30;40.10;;;;;;5067793;28;20474;-60
2021/12/21 01:42:04;;;;;;;2.37;2.27;;;19.20;40.00;;;;;;5069471;28;20476;-60
2021/12/21 01:50:12;;;;;;;1.90;1.80;;;19.30;40.00;;;;;;5066510;28;20523;-59
2021/12/21 01:52:38;;;;;;;1.93;1.83;;;19.20;40.00;;;;;;5067502;28;20903;-62
2021/12/21 01:55:05;;;;;;;2.53;2.33;;;19.20;39.90;;;;;;5069124;28;20225;-60
2021/12/21 01:57:31;;;;;;;2.03;1.93;;;19.20;39.90;;;;;;5064640;28;20588;-62
2021/12/21 01:59:57;;;;;;;2.30;2.20;;;19.20;39.90;;;;;;5067656;28;20466;-59
2021/12/21 02:02:22;;;;;;;2.60;2.40;;;19.20;39.90;;;;;;5066810;28;20242;-62
2021/12/21 02:04:48;;;;;;;2.20;2.10;;;19.20;39.90;;;;;;5067743;28;20693;-60
2021/12/21 02:07:14;;;;;;;4.70;2.10;;;19.20;39.90;;;;;;5067506;28;20644;-60
2021/12/21 02:09:40;;;;;;;2.10;1.90;;;19.20;39.90;;;;;;5068039;28;20222;-59
2021/12/21 02:12:09;;;;;;;2.10;2.00;;;19.20;39.90;;;;;;5066943;28;20479;-59
2021/12/21 02:14:35;;;;;;;2.00;1.90;;;19.20;39.90;;;;;;5068228;28;20269;-60
2021/12/21 02:17:41;;;;;;;2.03;1.93;;;19.20;39.90;;;;;;5066775;28;20952;-59
2021/12/21 02:20:37;;;;;;;2.33;1.87;;;19.20;40.60;;;;;;5064735;28;20520;-59
2021/12/21 02:23:15;;;;;;;2.30;2.10;;;19.20;39.90;;;;;;5066469;28;20913;-59
2021/12/21 02:26:02;;;;;;;2.40;2.20;;;19.20;39.90;;;;;;5066998;28;20939;-59
2021/12/21 02:30:55;;;;;;;2.43;2.17;;;19.20;39.80;;;;;;5068199;28;20446;-60
2021/12/21 02:33:23;;;;;;;3.33;2.13;;;19.20;39.80;;;;;;5065273;28;20455;-59
2021/12/21 02:35:52;;;;;;;2.03;1.93;;;19.20;39.90;;;;;;5068432;28;20481;-60
2021/12/21 02:38:18;;;;;;;1.90;1.80;;;19.20;39.90;;;;;;5066295;28;20462;-63
2021/12/21 02:40:45;;;;;;;2.40;2.20;;;19.20;39.90;;;;;;5068820;28;20805;-60
2021/12/21 02:43:13;;;;;;;2.33;2.13;;;19.20;39.90;;;;;;5069239;28;20832;-60
2021/12/21 02:45:39;;;;;;;1.90;1.80;;;19.20;39.90;;;;;;5067774;28;20446;-60
2021/12/21 02:48:05;;;;;;;1.90;1.80;;;19.20;39.80;;;;;;5066346;28;20545;-59
2021/12/21 02:50:31;;;;;;;2.30;2.20;;;19.20;39.80;;;;;;5068098;28;20869;-59
2021/12/21 02:52:59;;;;;;;1.83;1.73;;;19.20;39.80;;;;;;5067078;28;20478;-60
2021/12/21 02:55:26;;;;;;;2.00;1.90;;;19.20;39.80;;;;;;5068685;28;20272;-60
2021/12/21 02:57:52;;;;;;;1.80;1.70;;;19.20;39.80;;;;;;5065981;28;20507;-60
2021/12/21 03:00:17;;;;;;;2.17;2.07;;;19.20;39.80;;;;;;5066808;28;20521;-59
2021/12/21 03:02:43;;;;;;;1.97;1.87;;;19.20;39.80;;;;;;5067806;28;20218;-59
2021/12/21 03:05:10;;;;;;;1.90;1.80;;;19.20;39.80;;;;;;5066838;28;20231;-60
2021/12/21 03:10:11;;;;;;;2.50;2.30;;;19.20;39.90;;;;;;5067361;28;20530;-60
2021/12/21 03:15:25;;;;;;;2.07;1.97;;;19.20;39.80;;;;;;5065435;28;20455;-59
2021/12/21 03:17:52;;;;;;;2.40;1.90;;;19.20;39.80;;;;;;5068376;28;20439;-61
2021/12/21 03:20:18;;;;;;;2.17;2.00;;;19.20;39.90;;;;;;5068379;28;20461;-59
2021/12/21 03:22:44;;;;;;;2.07;1.97;;;19.20;39.80;;;;;;5066574;28;20421;-59
2021/12/21 03:25:10;;;;;;;2.00;1.90;;;19.20;39.80;;;;;;5068852;28;20291;-63
2021/12/21 03:27:36;;;;;;;1.90;1.80;;;19.20;39.80;;;;;;5068166;28;20218;-59
2021/12/21 03:30:02;;;;;;;1.80;1.70;;;19.20;39.90;;;;;;5065551;28;20794;-59
2021/12/21 03:32:27;;;;;;;2.07;1.97;;;19.20;39.90;;;;;;5067632;28;20261;-60
2021/12/21 03:34:53;;;;;;;2.27;1.83;;;19.20;39.80;;;;;;5070987;28;20950;-59
2021/12/21 03:37:19;;;;;;;1.90;1.80;;;19.20;39.80;;;;;;5072012;28;20217;-59
2021/12/21 03:39:46;;;;;;;1.80;1.70;;;19.20;39.80;;;;;;5071660;28;20677;-59
2021/12/21 03:42:14;;;;;;;1.70;1.60;;;19.20;39.80;;;;;;5070355;28;20616;-59
2021/12/21 03:44:40;;;;;;;1.80;1.70;;;19.20;39.80;;;;;;5070536;28;21003;-60
2021/12/21 03:47:09;;;;;;;1.80;1.70;;;19.20;39.90;;;;;;5069695;28;20527;-60
2021/12/21 03:52:14;;;;;;;1.63;1.53;;;19.20;39.80;;;;;;5070744;28;20442;-60
2021/12/21 03:54:42;;;;;;;2.03;1.93;;;19.20;39.80;;;;;;5069902;28;20435;-59
2021/12/21 03:57:08;;;;;;;1.90;1.80;;;19.20;39.80;;;;;;5070868;28;20461;-60
2021/12/21 03:59:34;;;;;;;2.30;2.20;;;19.20;39.80;;;;;;5070106;28;20836;-60
2021/12/21 04:02:00;;;;;;;1.77;1.67;;;19.20;39.80;;;;;;5070178;28;20293;-60
2021/12/21 04:04:26;;;;;;;3.90;1.97;;;19.20;39.70;;;;;;5069069;28;20244;-59
2021/12/21 04:06:52;;;;;;;1.87;1.77;;;19.20;39.80;;;;;;5070224;28;20442;-63
2021/12/21 04:09:18;;;;;;;2.03;1.93;;;19.20;39.70;;;;;;5071410;28;20438;-59
2021/12/21 04:11:44;;;;;;;2.40;2.00;;;19.20;39.70;;;;;;5067265;28;20913;-59
2021/12/21 04:14:10;;;;;;;1.63;1.53;;;19.20;39.80;;;;;;5070484;28;20939;-59
2021/12/21 04:16:36;;;;;;;2.10;2.00;;;19.20;39.70;;;;;;5071420;28;20214;-59
2021/12/21 04:19:02;;;;;;;1.60;1.50;;;19.20;39.70;;;;;;5069518;28;20229;-59
2021/12/21 04:21:28;;;;;;;2.50;2.40;;;19.20;39.70;;;;;;5069572;28;20226;-59
2021/12/21 04:23:53;;;;;;;1.90;1.80;;;19.20;39.70;;;;;;5070098;28;20921;-59
2021/12/21 04:26:19;;;;;;;2.33;2.13;;;19.20;39.70;;;;;;5070227;28;20214;-59
2021/12/21 04:28:45;;;;;;;1.80;1.70;;;19.20;39.60;;;;;;5070346;28;20233;-59
2021/12/21 04:31:11;;;;;;;1.83;1.73;;;19.20;39.60;;;;;;5069118;28;20662;-60
2021/12/21 04:33:39;;;;;;;1.70;1.60;;;19.20;39.60;;;;;;5068670;28;20226;-59
2021/12/21 04:36:05;;;;;;;2.10;2.00;;;19.20;39.60;;;;;;5069454;28;20434;-60
2021/12/21 04:38:36;;;;;;;1.87;1.77;;;19.20;39.60;;;;;;5069827;28;20483;-59
2021/12/21 04:41:24;;;;;;;1.90;1.80;;;19.20;39.60;;;;;;5068313;28;20429;-60
2021/12/21 04:43:51;;;;;;;2.20;2.00;;;19.20;39.60;;;;;;5068499;28;20861;-59
2021/12/21 04:46:17;;;;;;;1.90;1.80;;;19.20;39.60;;;;;;5068239;28;20477;-60
2021/12/21 04:48:42;;;;;;;2.20;2.07;;;19.20;39.60;;;;;;5070142;28;20478;-59
2021/12/21 04:51:08;;;;;;;1.67;1.57;;;19.20;39.60;;;;;;5066271;28;20218;-59
2021/12/21 04:53:34;;;;;;;1.90;1.80;;;19.20;39.60;;;;;;5069321;28;20218;-59
2021/12/21 04:56:00;;;;;;;2.00;1.90;;;19.20;39.60;;;;;;5067899;28;20214;-61
2021/12/21 04:58:25;;;;;;;1.90;1.80;;;19.10;39.50;;;;;;5070635;28;20315;-63
2021/12/21 05:00:51;;;;;;;2.10;2.00;;;19.20;39.60;;;;;;5068891;28;20439;-63
2021/12/21 05:03:18;;;;;;;2.10;2.00;;;19.20;39.60;;;;;;5067015;28;20326;-62
2021/12/21 05:05:43;;;;;;;1.87;1.77;;;19.20;39.60;;;;;;5067397;28;20414;-61
2021/12/21 05:08:12;;;;;;;1.90;1.80;;;19.20;39.60;;;;;;5070216;28;20451;-61
2021/12/21 05:10:49;;;;;;;2.10;2.00;;;19.20;39.60;;;;;;5066718;28;20296;-62
2021/12/21 05:13:16;;;;;;;1.73;1.63;;;19.20;39.60;;;;;;5067730;28;20450;-63
2021/12/21 05:15:43;;;;;;;1.90;1.80;;;19.20;39.60;;;;;;5070703;28;20526;-61
2021/12/21 05:18:13;;;;;;;1.90;1.80;;;19.20;39.60;;;;;;5068352;28;20438;-61
2021/12/21 05:20:40;;;;;;;1.83;1.73;;;19.20;39.50;;;;;;5066042;28;20454;-61
2021/12/21 05:23:06;;;;;;;2.00;1.90;;;19.20;39.50;;;;;;5069779;28;20446;-61
2021/12/21 05:25:32;;;;;;;2.00;1.90;;;19.20;39.50;;;;;;5066126;28;20447;-60
2021/12/21 05:27:58;;;;;;;1.90;1.80;;;19.20;39.50;;;;;;5069845;28;20778;-61
2021/12/21 05:30:25;;;;;;;1.97;1.87;;;19.20;39.50;;;;;;5066562;28;20622;-60
2021/12/21 05:32:51;;;;;;;2.33;2.10;;;19.20;39.50;;;;;;5066867;28;20224;-61
2021/12/21 05:35:18;;;;;;;1.97;1.87;;;19.20;39.30;;;;;;5067359;28;20806;-61
2021/12/21 05:37:45;;;;;;;1.83;1.73;;;19.20;39.40;;;;;;5068385;28;20443;-61
2021/12/21 05:40:15;;;;;;;2.10;1.90;;;19.20;39.30;;;;;;5068540;28;20520;-63
2021/12/21 05:42:41;;;;;;;3.13;1.90;;;19.20;39.40;;;;;;5069000;28;20961;-60
2021/12/21 05:45:09;;;;;;;2.33;2.00;;;19.20;39.40;;;;;;5069650;28;20439;-61
2021/12/21 05:47:35;;;;;;;1.97;1.87;;;19.20;39.30;;;;;;5069303;28;20446;-61
2021/12/21 05:50:01;;;;;;;1.83;1.73;;;19.20;39.30;;;;;;5069067;28;20451;-61
2021/12/21 05:52:27;;;;;;;1.83;1.73;;;19.20;39.20;;;;;;5069425;28;20447;-62
2021/12/21 05:54:53;;;;;;;1.83;1.73;;;19.20;39.30;;;;;;5069085;28;20438;-62
2021/12/21 05:57:18;;;;;;;2.33;2.20;;;19.20;39.20;;;;;;5066871;28;20218;-62
2021/12/21 05:59:44;;;;;;;2.10;2.00;;;19.30;39.20;;;;;;5084412;28;20238;-62
2021/12/21 06:02:10;;;;;;;2.03;1.90;;;19.30;39.10;;;;;;5069463;28;20213;-63
2021/12/21 06:04:35;;;;;;;2.00;1.90;;;19.30;38.90;;;;;;5069364;28;20238;-61
2021/12/21 06:07:01;;;;;;;2.03;1.73;;;19.30;38.90;;;;;;5068170;28;20283;-61
2021/12/21 06:09:28;;;;;;;2.10;2.00;;;19.40;38.90;;;;;;5068845;28;20675;-61
2021/12/21 06:25:42;;;;;;;1.60;1.50;;;19.40;38.70;;;;;;5066006;28;20446;-60
2021/12/21 06:28:10;;;;;;;1.90;1.80;;;19.40;38.70;;;;;;5068792;28;20442;-63
2021/12/21 06:30:38;;;;;;;2.13;2.00;;;19.40;38.70;;;;;;5063847;28;20529;-61
2021/12/21 06:33:04;;;;;;;1.70;1.60;;;19.40;38.80;;;;;;5067400;28;20481;-61
2021/12/21 06:35:30;;;;;;;2.10;2.00;;;19.50;39.00;;;;;;5068251;28;20470;-61
2021/12/21 06:37:56;;;;;;;2.00;1.90;;;19.50;39.00;;;;;;5068904;28;20816;-60
2021/12/21 06:40:22;;;;;;;2.43;2.23;;;19.50;39.10;;;;;;5066804;28;20454;-60
2021/12/21 06:42:50;;;;;;;2.63;2.43;;;19.50;39.00;;;;;;5068218;28;20213;-61
2021/12/21 06:53:30;;;;;;;2.20;2.00;;;19.50;39.20;;;;;;5068744;28;20461;-61
2021/12/21 06:55:56;;;;;;;2.00;1.90;;;19.50;39.20;;;;;;5069028;28;20515;-64
2021/12/21 06:58:22;;;;;;;2.53;2.33;;;19.50;39.20;;;;;;5066033;28;20492;-60
2021/12/21 07:00:49;;;;;;;3.53;2.53;;;19.50;39.30;;;;;;5067747;28;20724;-60
2021/12/21 07:03:15;;;;;;;2.50;2.30;;;19.50;39.20;;;;;;5063821;28;20234;-61
2021/12/21 07:05:41;;;;;;;2.90;2.70;;;19.50;40.10;;;;;;5064703;28;20454;-60
2021/12/21 07:08:14;;;;;;;2.40;2.30;;;19.50;39.30;;;;;;5068454;28;20430;-60
2021/12/21 07:10:41;;;;;;;3.40;2.80;;;19.50;39.30;;;;;;5071879;28;20291;-62
2021/12/21 07:18:36;;;;;;;2.77;2.57;;;19.50;39.50;;;;;;5070083;28;20458;-60
2021/12/21 07:21:03;;;;;;;2.93;2.73;;;19.50;39.50;;;;;;5070498;28;20801;-61
2021/12/21 07:23:30;;;;;;;3.80;2.47;;;19.50;39.50;;;;;;5069967;28;20232;-61
2021/12/21 07:25:55;;;;;;;2.70;2.50;;;19.50;39.50;;;;;;5071748;28;20455;-60
2021/12/21 07:28:21;;;;;;;2.60;2.43;;;19.50;39.50;;;;;;5069609;28;20465;-60
2021/12/21 07:30:50;;;;;;;2.60;2.40;;;19.50;39.50;;;;;;5071718;28;20217;-60
2021/12/21 07:33:16;;;;;;;3.63;3.23;;;19.50;39.50;;;;;;5069820;28;20226;-59
2021/12/21 07:35:42;;;;;;;3.47;2.90;;;19.50;39.60;;;;;;5068426;28;21012;-62
2021/12/21 07:38:08;;;;;;;3.07;2.77;;;19.50;39.50;;;;;;5071427;28;20443;-60
2021/12/21 07:40:33;;;;;;;3.53;2.83;;;19.50;39.60;;;;;;5070114;28;20685;-60
2021/12/21 07:43:00;;;;;;;3.20;2.97;;;19.50;39.60;;;;;;5070322;28;20462;-61
2021/12/21 07:45:26;;;;;;;2.90;2.70;;;19.50;39.70;;;;;;5069547;28;20217;-62
2021/12/21 07:47:52;;;;;;;3.30;3.10;;;19.50;39.60;;;;;;5071722;28;20935;-60
2021/12/21 07:50:19;;;;;;;3.80;3.50;;;19.50;39.60;;;;;;5071232;28;20450;-60
2021/12/21 07:52:45;;;;;;;4.57;4.17;;;19.50;39.60;;;;;;5068586;28;20453;-60
2021/12/21 07:55:11;;;;;;;4.13;3.83;;;19.50;39.60;;;;;;5070329;28;20447;-59
2021/12/21 07:57:37;;;;;;;5.33;3.57;;;19.50;39.60;;;;;;5070395;28;20222;-60
2021/12/21 08:00:05;;;;;;;6.27;4.40;;;19.50;39.60;;;;;;5069934;28;20229;-59
2021/12/21 08:02:31;;;;;;;4.63;4.03;;;19.50;39.60;;;;;;5068067;28;20458;-62
2021/12/21 08:04:57;;;;;;;5.13;4.63;;;19.50;39.70;;;;;;5068032;28;20825;-61
2021/12/21 08:07:29;;;;;;;8.33;4.33;;;19.50;39.60;;;;;;5068495;28;20462;-63
2021/12/21 08:09:55;;;;;;;11.60;5.87;;;19.50;39.70;;;;;;5085863;28;20229;-60
2021/12/21 08:12:21;;;;;;;6.53;4.67;;;19.50;39.60;;;;;;5066817;28;20496;-60
2021/12/21 08:14:52;;;;;;;6.77;6.10;;;19.50;39.60;;;;;;5070032;28;20266;-60
2021/12/21 08:17:19;;;;;;;6.73;4.80;;;19.50;39.60;;;;;;5069042;28;20527;-60
2021/12/21 08:19:46;;;;;;;8.23;6.10;;;19.50;39.60;;;;;;5068104;28;20491;-61
2021/12/21 08:22:12;;;;;;;6.80;5.73;;;19.50;39.60;;;;;;5069593;28;20477;-61
2021/12/21 08:24:38;;;;;;;5.73;5.23;;;19.50;39.70;;;;;;5067714;28;20474;-60
2021/12/21 08:27:04;;;;;;;8.20;5.77;;;19.50;39.60;;;;;;5071151;28;20468;-60
2021/12/21 08:29:31;;;;;;;6.57;4.73;;;19.50;39.60;;;;;;5070188;28;20507;-60
2021/12/21 08:31:56;;;;;;;6.50;5.40;;;19.50;39.60;;;;;;5068438;28;20954;-59
2021/12/21 08:34:22;;;;;;;8.80;6.23;;;19.50;39.60;;;;;;5068229;28;20450;-59
2021/12/21 08:36:49;;;;;;;7.00;5.53;;;19.50;39.60;;;;;;5070478;28;20776;-59
2021/12/21 08:39:16;;;;;;;7.10;6.13;;;19.50;39.60;;;;;;5069102;28;20512;-60
2021/12/21 08:41:43;;;;;;;7.60;5.90;;;19.50;39.60;;;;;;5067748;28;20457;-61
2021/12/21 08:44:11;;;;;;;7.17;5.97;;;19.50;39.60;;;;;;5071040;28;20473;-60
2021/12/21 08:46:40;;;;;;;8.20;5.70;;;19.50;39.60;;;;;;5069554;28;20451;-59
2021/12/21 08:49:06;;;;;;;6.40;5.80;;;19.50;39.60;;;;;;5069357;28;20539;-59
2021/12/21 08:51:32;;;;;;;9.00;6.63;;;19.50;39.60;;;;;;5070809;28;21011;-59
2021/12/21 08:53:58;;;;;;;7.73;6.90;;;19.50;39.60;;;;;;5064204;28;20553;-60
2021/12/21 08:56:24;;;;;;;11.20;7.13;;;19.50;39.60;;;;;;5069560;28;20450;-59
2021/12/21 08:58:50;;;;;;;6.87;6.20;;;19.50;39.60;;;;;;5069733;28;20294;-60
2021/12/21 09:01:17;;;;;;;7.13;5.97;;;19.50;39.60;;;;;;5068757;28;20531;-61
2021/12/21 09:03:43;;;;;;;9.30;7.60;;;19.50;39.60;;;;;;5070199;28;20462;-60
2021/12/21 09:06:09;;;;;;;6.57;5.70;;;19.50;39.60;;;;;;5068439;28;21313;-59
2021/12/21 09:08:35;;;;;;;7.83;6.10;;;19.50;39.60;;;;;;5068246;28;20954;-60
2021/12/21 09:11:04;;;;;;;8.57;7.10;;;19.50;39.60;;;;;;5067871;28;20213;-61
2021/12/21 09:13:31;;;;;;;8.03;7.27;;;19.50;39.60;;;;;;5068179;28;20221;-60
2021/12/21 09:15:57;;;;;;;8.90;6.97;;;19.50;39.60;;;;;;5070125;28;20442;-59
2021/12/21 09:18:23;;;;;;;6.27;5.67;;;19.50;39.60;;;;;;5067507;28;20481;-59
2021/12/21 09:20:48;;;;;;;8.60;6.63;;;19.50;39.60;;;;;;5068685;28;20798;-60
2021/12/21 09:23:14;;;;;;;9.20;7.30;;;19.50;40.40;;;;;;5069666;28;20288;-62
2021/12/21 09:25:40;;;;;;;10.13;7.37;;;19.50;39.60;;;;;;5065564;28;20226;-59
2021/12/21 09:28:06;;;;;;;9.10;6.67;;;19.50;39.60;;;;;;5069929;28;20469;-60
2021/12/21 09:30:32;;;;;;;6.73;6.13;;;19.50;39.60;;;;;;5068405;28;20864;-59
2021/12/21 09:32:59;;;;;;;6.80;6.10;;;19.50;39.60;;;;;;5067435;28;20671;-60
2021/12/21 09:35:24;;;;;;;7.10;5.80;;;19.50;39.60;;;;;;5068788;28;20804;-59
2021/12/21 09:37:51;;;;;;;7.73;6.60;;;19.50;39.60;;;;;;5069875;28;20443;-60
2021/12/21 09:40:20;;;;;;;7.40;6.60;;;19.50;39.60;;;;;;5069395;28;20263;-59
2021/12/21 09:42:46;;;;;;;7.37;6.40;;;19.50;39.60;;;;;;5067671;28;20508;-60
2021/12/21 09:45:13;;;;;;;7.73;6.87;;;19.50;39.70;;;;;;5067063;28;20440;-62
2021/12/21 09:47:38;;;;;;;8.30;5.50;;;19.50;39.70;;;;;;5067043;28;20522;-60
2021/12/21 09:50:07;;;;;;;6.60;5.90;;;19.50;39.70;;;;;;5066118;28;20538;-59
2021/12/21 09:52:33;;;;;;;6.23;5.63;;;19.50;39.60;;;;;;5068027;28;20218;-59
2021/12/21 09:55:00;;;;;;;7.73;6.50;;;19.50;39.60;;;;;;5069643;28;20453;-59
2021/12/21 09:57:27;;;;;;;8.97;5.90;;;19.50;39.60;;;;;;5067217;28;20629;-59
2021/12/21 09:59:53;;;;;;;9.13;6.70;;;19.50;39.70;;;;;;5068296;28;20517;-60
2021/12/21 10:02:25;;;;;;;6.80;5.57;;;19.50;39.70;;;;;;5068335;28;20463;-60
2021/12/21 10:04:55;;;;;;;7.57;6.27;;;19.50;39.70;;;;;;5066109;28;20525;-60
2021/12/21 10:07:22;;;;;;;7.03;6.40;;;19.50;39.60;;;;;;5068219;28;20461;-59
2021/12/21 10:09:49;;;;;;;7.13;5.93;;;19.50;39.70;;;;;;5068323;28;20453;-60
2021/12/21 10:12:38;;;;;;;6.77;5.43;;;19.50;39.70;;;;;;5065741;28;20449;-60
2021/12/21 10:15:09;;;;;;;6.07;5.43;;;19.50;39.70;;;;;;5067921;28;20791;-60
2021/12/21 10:17:35;;;;;;;6.23;5.73;;;19.50;39.60;;;;;;5061669;28;20538;-61
2021/12/21 10:20:06;;;;;;;6.90;5.77;;;19.50;39.60;;;;;;5066108;28;20482;-60
2021/12/21 10:22:33;;;;;;;5.87;5.30;;;19.50;39.60;;;;;;5066839;28;20533;-60
2021/12/21 10:24:58;;;;;;;7.53;6.20;;;19.50;39.60;;;;;;5066029;28;20450;-60
2021/12/21 10:27:25;;;;;;;7.03;5.80;;;19.50;39.70;;;;;;5067628;28;20443;-59
2021/12/21 10:30:00;;;;;;;6.30;5.80;;;19.50;39.70;;;;;;5064388;28;20225;-62
2021/12/21 10:32:28;;;;;;;5.83;5.33;;;19.50;39.60;;;;;;5067740;28;20850;-59
2021/12/21 10:35:00;;;;;;;7.40;6.10;;;19.50;39.70;;;;;;5068314;28;20463;-59
2021/12/21 10:37:32;;;;;;;6.47;5.87;;;19.50;39.70;;;;;;5068460;28;20442;-60
2021/12/21 10:40:24;;;;;;;6.67;6.00;;;19.50;39.70;;;;;;5063902;28;20462;-60
2021/12/21 10:43:06;;;;;;;5.80;5.40;;;19.50;39.70;;;;;;5069745;28;20438;-60
2021/12/21 10:45:34;;;;;;;6.60;5.60;;;19.50;39.70;;;;;;5069583;28;20443;-61
2021/12/21 10:48:02;;;;;;;5.87;5.40;;;19.50;40.50;;;;;;5069110;28;20456;-60
2021/12/21 10:50:32;;;;;;;6.57;5.80;;;19.50;39.70;;;;;;5070744;28;20497;-63
2021/12/21 10:52:58;;;;;;;5.83;5.37;;;19.50;39.70;;;;;;5072533;28;20528;-60
2021/12/21 10:55:29;;;;;;;6.10;5.50;;;19.50;39.70;;;;;;5068772;28;20454;-60
2021/12/21 10:58:15;;;;;;;5.97;5.50;;;19.50;39.70;;;;;;5068151;28;20485;-60
2021/12/21 11:00:52;;;;;;;4.93;4.63;;;19.50;39.70;;;;;;5068405;28;20468;-60
2021/12/21 11:03:32;;;;;;;5.83;5.33;;;19.50;39.70;;;;;;5072018;28;20462;-60
2021/12/21 11:06:32;;;;;;;6.40;4.93;;;19.50;39.70;;;;;;5070583;28;21103;-60
2021/12/21 11:08:58;;;;;;;6.53;6.03;;;19.40;39.60;;;;;;5053165;28;20466;-59
2021/12/21 11:11:32;;;;;;;5.33;4.77;;;19.40;39.60;;;;;;5069354;28;20823;-61
2021/12/21 11:14:00;;;;;;;5.30;4.90;;;19.50;39.70;;;;;;5069926;28;20217;-60
2021/12/21 11:16:38;;;;;;;6.23;5.73;;;19.40;39.60;;;;;;5069372;28;20486;-60
2021/12/21 11:19:04;;;;;;;5.03;4.63;;;19.50;39.70;;;;;;5069084;28;20454;-60
2021/12/21 11:21:31;;;;;;;5.20;4.70;;;19.50;39.70;;;;;;5071676;28;20446;-60
2021/12/21 11:24:02;;;;;;;5.90;5.30;;;19.40;39.60;;;;;;5068550;28;20451;-61
2021/12/21 11:26:30;;;;;;;5.53;5.13;;;19.50;39.70;;;;;;5070554;28;20594;-62
2021/12/21 11:28:56;;;;;;;5.20;4.70;;;19.50;40.50;;;;;;5070647;28;20446;-61
2021/12/21 11:31:23;;;;;;;5.20;4.80;;;19.50;39.70;;;;;;5070407;28;20455;-60
2021/12/21 11:33:55;;;;;;;4.50;4.10;;;19.50;39.70;;;;;;5070847;28;20213;-60
2021/12/21 11:39:07;;;;;;;4.80;4.40;;;19.40;39.60;;;;;;5070207;28;20460;-61
2021/12/21 11:41:34;;;;;;;4.73;4.33;;;19.40;39.60;;;;;;5069120;28;20507;-59
2021/12/21 11:44:12;;;;;;;5.50;4.57;;;19.40;39.60;;;;;;5070249;28;20434;-59
2021/12/21 11:46:54;;;;;;;4.53;4.17;;;19.40;39.50;;;;;;5070410;28;20442;-61
2021/12/21 11:49:43;;;;;;;5.00;4.57;;;19.40;39.50;;;;;;5070248;28;20417;-64
2021/12/21 11:52:14;;;;;;;4.67;4.37;;;19.40;39.50;;;;;;5058876;28;20450;-60
2021/12/21 11:54:54;;;;;;;4.90;4.50;;;19.40;39.50;;;;;;5068565;28;20443;-59
2021/12/21 11:57:32;;;;;;;5.20;4.73;;;19.40;39.50;;;;;;5069504;28;20587;-60
2021/12/21 12:00:09;;;;;;;4.20;3.90;;;19.40;39.50;;;;;;5069295;28;20501;-59
2021/12/21 12:02:35;;;;;;;3.80;3.50;;;19.40;39.50;;;;;;5070747;28;20454;-59
2021/12/21 12:05:01;;;;;;;6.47;4.20;;;19.40;39.50;;;;;;5068739;28;20864;-60
2021/12/21 12:07:26;;;;;;;4.17;3.87;;;19.40;39.60;;;;;;5070877;28;20938;-60
2021/12/21 12:10:11;;;;;;;4.23;3.93;;;19.40;39.50;;;;;;5067846;28;20217;-59
2021/12/21 12:12:37;;;;;;;4.83;4.17;;;19.40;39.50;;;;;;5071563;28;20434;-60
2021/12/21 12:15:05;;;;;;;3.90;3.60;;;19.50;39.60;;;;;;5069552;28;21029;-59
2021/12/21 12:17:31;;;;;;;4.07;3.77;;;19.50;39.60;;;;;;5067089;28;20465;-59
2021/12/21 12:20:05;;;;;;;3.93;3.63;;;19.40;39.50;;;;;;5069975;28;20879;-59
2021/12/21 12:22:40;;;;;;;4.30;3.90;;;19.40;39.50;;;;;;5070504;28;20450;-59
2021/12/21 12:25:20;;;;;;;4.40;4.07;;;19.40;40.40;;;;;;5069899;28;20438;-60
2021/12/21 12:27:51;;;;;;;5.20;4.53;;;19.40;39.50;;;;;;5070042;28;20504;-59
2021/12/21 12:30:22;;;;;;;5.07;4.57;;;19.50;39.60;;;;;;5069825;28;20958;-59
2021/12/21 12:32:55;;;;;;;3.73;3.47;;;19.50;39.60;;;;;;5070291;28;21073;-59
2021/12/21 12:35:25;;;;;;;3.73;3.43;;;19.50;39.70;;;;;;5070093;28;20451;-60
2021/12/21 12:37:52;;;;;;;4.07;3.77;;;19.50;40.70;;;;;;5068352;28;20541;-62
2021/12/21 12:40:23;;;;;;;4.33;4.03;;;19.40;39.60;;;;;;5070070;28;20458;-60
2021/12/21 12:43:08;;;;;;;4.00;3.70;;;19.50;39.60;;;;;;5070052;28;20446;-60
2021/12/21 12:45:37;;;;;;;4.17;3.77;;;19.50;39.60;;;;;;5067515;28;20454;-59
2021/12/21 12:48:15;;;;;;;4.37;4.07;;;19.50;39.60;;;;;;5067204;28;20467;-59
2021/12/21 12:50:42;;;;;;;4.27;3.97;;;19.50;39.60;;;;;;5066303;28;20978;-60
2021/12/21 12:53:08;;;;;;;3.20;3.00;;;19.50;39.60;;;;;;5069402;28;20443;-60
2021/12/21 12:55:45;;;;;;;3.80;3.60;;;19.50;39.60;;;;;;5069546;28;20449;-60
2021/12/21 12:58:14;;;;;;;2.87;2.67;;;19.50;39.60;;;;;;5064997;28;20494;-59
2021/12/21 13:00:44;;;;;;;3.80;3.53;;;19.50;39.60;;;;;;5069625;28;20443;-60
2021/12/21 13:03:11;;;;;;;3.50;3.30;;;19.50;39.60;;;;;;5067460;28;20438;-62
2021/12/21 13:05:43;;;;;;;3.30;3.10;;;19.50;39.60;;;;;;5068914;28;20776;-61
2021/12/21 13:08:13;;;;;;;4.00;3.70;;;19.50;39.60;;;;;;5066927;28;20550;-62
2021/12/21 13:10:42;;;;;;;5.10;4.17;;;19.50;39.60;;;;;;5067663;28;20525;-60
2021/12/21 13:13:08;;;;;;;3.70;3.40;;;19.50;39.60;;;;;;5069010;28;20443;-60
2021/12/21 13:15:41;;;;;;;2.83;2.63;;;19.50;39.50;;;;;;5067236;28;20449;-62
2021/12/21 13:18:09;;;;;;;3.10;2.90;;;19.50;39.60;;;;;;5070031;28;20443;-60
2021/12/21 13:20:36;;;;;;;4.23;3.93;;;19.50;39.60;;;;;;5067657;28;20467;-59
2021/12/21 13:23:14;;;;;;;3.73;3.53;;;19.50;39.70;;;;;;5068652;28;21149;-59
2021/12/21 13:25:52;;;;;;;3.23;3.00;;;19.50;39.60;;;;;;5068249;28;20446;-60
2021/12/21 13:28:18;;;;;;;2.83;2.63;;;19.50;39.60;;;;;;5066377;28;20442;-59
2021/12/21 13:30:50;;;;;;;3.30;3.10;;;19.50;39.60;;;;;;5069159;28;20442;-61
2021/12/21 13:33:22;;;;;;;3.20;3.00;;;19.50;39.60;;;;;;5067813;28;20347;-60
2021/12/21 13:35:49;;;;;;;3.03;2.83;;;19.50;39.60;;;;;;5069481;28;20442;-60
2021/12/21 13:38:18;;;;;;;3.40;3.10;;;19.50;39.60;;;;;;5068944;28;20442;-59
2021/12/21 13:40:46;;;;;;;3.00;2.80;;;19.50;39.60;;;;;;5068448;28;20432;-63
2021/12/21 13:43:13;;;;;;;3.17;2.90;;;19.50;39.60;;;;;;5068314;28;20541;-62
2021/12/21 13:45:41;;;;;;;3.37;3.17;;;19.50;39.60;;;;;;5068501;28;20418;-66
2021/12/21 13:48:17;;;;;;;3.23;3.03;;;19.50;39.60;;;;;;5066663;28;20801;-61
2021/12/21 13:50:43;;;;;;;3.87;3.00;;;19.50;39.60;;;;;;5068493;28;20576;-61
2021/12/21 13:53:09;;;;;;;3.50;3.30;;;19.50;39.60;;;;;;5066043;28;20448;-63